Airfield :
LOGIN :

Register | Disclaimer

   EN    FR    IT 

 










Legend :    VFR   Marginal VFR   IFR   Intensive IFR   Very Intensive IFR
Visi :
Ceiling :
>= 8 km
>= 3000ft
5 to 8 km
1000 to 3000 ft
1500m to 5 km
500 to 1000 ft
800 to 1500m
200 to 500 ft
< 800m
< 200 ft
Symbols :   Thunderstorms  Fog  Heavy snow  Heavy precipitations  Wind > 20 kt
SIGMETs :     Misc.  Thunderstorms  Icing  Turbulence  Mountain Waves  Volcanic Ashes






- Airport Elevation : 49 ft
- IATA code : GLZ


EHGR - Gilze-Rijen Airbase

CURRENT METAR :
  • 221304Z AUTO 26014G25KT 240V300 9999 DZRA FEW018 SCT024 BKN040 12/07 Q1017 WHT NOSIG

EXPIRED METARs :
  • 221255Z AUTO 27013KT 230V300 9999 FEW023 BKN040 BKN046 12/08 Q1017 BLU NOSIG
  • 221241Z AUTO 26013G23KT 9999 SCT023 BKN045 BKN061 12/08 Q1016 WHT NOSIG
  • 221226Z AUTO 26013KT 240V300 9999 FEW013 SCT024 BKN041 11/07 Q1016 WHT NOSIG
  • 221216Z AUTO 27011G21KT 230V300 9999 BKN024 BKN029 BKN035 11/07 Q1016 WHT NOSIG
  • 221200Z AUTO 26010KT 230V310 9999 -RA SCT024 BKN029 OVC035 11/07 Q1016 WHT NOSIG
  • 221155Z AUTO 27012G23KT 240V310 9999 FEW016 BKN026 BKN031 11/07 Q1016 BLU NOSIG
  • 221145Z AUTO 27010KT 240V310 9999 FEW002 BKN025 OVC028 11/07 Q1016 BLU NOSIG
  • 221125Z AUTO 26009KT 220V290 9999 -RADZ FEW011 SCT022 BKN025 11/07 Q1016 WHT NOSIG
  • 221055Z AUTO 25009G19KT 220V280 9999 -RA FEW027 SCT034 BKN038 11/07 Q1016 BLU NOSIG
  • 221025Z AUTO 24010KT 220V280 9999 DZ FEW023 BKN027 BKN034 10/06 Q1015 BLU NOSIG

TAF TAF EHGR
Valid from the 22 at 13:00 until the 23 at 01:00 UTC


221244Z 2213/2301 24012G22KT 9999 SCT035
TEMPO 2213/2216 SCT020CB
BECMG 2216/2218 27008KT
TEMPO 2216/2218 4000 RA SHRA SCT015 SCT020CB BKN025
BECMG 2218/2221 VRB02KT



MET'MAP, your aeronautical weather chart ! - Copyright ORBIFLY December 2007 - Disclaimer

ORBIFLY MET'MAP TEAM :

Programming & Development : Alexandra Zaïnal
Concept & original design : Baudouin d'Aumeries
Assistance for programming : Marc-Olivier Méhu
Technical & hardware support : Manuel Goepfert

Contact : metmap@orbifly.com




SOURCES & CREDITS :

   NOAA